< Typhoon 199024 1990 Season Typhoon 199026 >
Typhoon 199025 (MIKE)
General InformationTrack Information on Google MapsDetailed Wind InformationList of All Images || Disaster Info.ResourceGoogle EarthGE AnimationAtom FeedGeoJSON
Detalied Best Track (Time Zone = UTC)
Year Month Day Hour Lat. Long. Pressure (hPa) Wind (kt) Class Image Chart
1990 11 6 12 6.0 151.0 1004 0 2 Image Chart
1990 11 6 18 6.2 149.8 1002 0 2 Image Chart
1990 11 7 00 6.5 148.5 1002 0 2 Image Chart
1990 11 7 06 6.7 147.2 1000 0 2 Image Chart
1990 11 7 12 7.0 146.0 1000 0 2 Image Chart
1990 11 7 18 7.2 144.8 998 35 3 Image Chart
1990 11 8 00 7.5 143.5 994 40 3 Image Chart
1990 11 8 06 7.8 142.6 990 50 4 Image Chart
1990 11 8 12 8.1 141.6 985 50 4 Image Chart
1990 11 8 18 8.4 140.6 980 55 4 Image Chart
1990 11 9 00 8.8 139.7 975 60 4 Image Chart
1990 11 9 06 8.8 138.7 970 65 5 Image Chart
1990 11 9 12 8.8 137.7 965 70 5 Image Chart
1990 11 9 18 8.7 136.9 960 75 5 Image Chart
1990 11 10 00 8.5 136.0 955 75 5 Image Chart
1990 11 10 06 8.2 135.2 950 80 5 Image Chart
1990 11 10 12 7.9 134.8 940 85 5 Image Chart
1990 11 10 18 7.9 134.2 925 95 5 Image Chart
1990 11 11 00 8.1 133.7 915 100 5 Image Chart
1990 11 11 06 8.3 132.8 915 100 5 Image Chart
1990 11 11 12 8.8 131.6 915 100 5 Image Chart
1990 11 11 18 9.1 130.6 920 100 5 Image Chart
1990 11 12 00 9.4 129.3 925 95 5 Image Chart
1990 11 12 06 9.6 128.2 930 95 5 Image Chart
1990 11 12 12 10.1 126.6 935 90 5 Image Chart
1990 11 12 18 10.3 125.0 945 85 5 Image Chart
1990 11 13 00 10.6 123.4 960 75 5 Image Chart
1990 11 13 06 10.8 122.2 965 70 5 Image Chart
1990 11 13 12 11.7 120.8 970 65 5 Image Chart
1990 11 13 18 12.2 119.1 960 75 5 Image Chart
1990 11 14 00 12.8 117.6 955 75 5 Image Chart
1990 11 14 06 13.0 116.2 955 75 5 Image Chart
1990 11 14 12 13.3 114.7 960 75 5 Image Chart
1990 11 14 18 13.6 113.2 965 70 5 Image Chart
1990 11 15 00 13.8 111.8 970 65 5 Image Chart
1990 11 15 06 14.1 111.2 975 60 4 Image Chart
1990 11 15 12 14.7 110.5 980 55 4 Image Chart
1990 11 15 18 15.2 110.1 985 50 4 Image Chart
1990 11 16 00 15.8 109.9 990 45 3 Image Chart
1990 11 16 06 16.6 109.8 992 45 3 Image Chart
1990 11 16 12 17.2 109.6 994 40 3 Image Chart
1990 11 16 18 18.0 109.3 996 40 3 Image Chart
1990 11 17 00 19.4 108.4 998 35 3 Image Chart
1990 11 17 06 20.0 108.3 998 35 3 Image Chart
1990 11 17 12 20.4 108.3 1000 35 3 Image Chart
1990 11 17 18 20.8 108.2 1004 0 2 Image Chart
1990 11 18 00 21.2 107.8 1006 0 2 Image Chart
1990 11 18 06 21.6 107.4 1008 0 2 Image Chart
1990 11 18 12 22.0 107.0 1010 0 2 Image Chart
Japan Meteorological Agency Best Track Data | Correction Date : 1992-10-21
< Typhoon 199024 1990 Season Typhoon 199026 >

Help